Time;durP1;ratioP1;P1;durP2;ratioP2;P2;SDS_P1;SDS_P2;PMS_P1;PMS_P2;Temp;Humidity;BMP_temperature;BMP_pressure;BME280_temperature;BME280_humidity;BME280_pressure;Samples;Min_cycle;Max_cycle;Signal;HPM_P1;HPM_P2
2022/03/24 00:01:29;;;;;;;10.02;4.10;;;;;;;11.15;42.70;102327.56;5172128;28;20049;-80
2022/03/24 00:04:00;;;;;;;4.30;3.47;;;;;;;11.16;42.41;102318.78;5161059;28;20036;-79
2022/03/24 00:06:30;;;;;;;4.35;3.95;;;;;;;11.10;42.84;102322.31;5154533;28;20049;-79
2022/03/24 00:09:01;;;;;;;5.13;2.88;;;;;;;11.09;42.70;102319.69;5152456;28;20026;-79
2022/03/24 00:11:32;;;;;;;5.32;4.00;;;;;;;10.95;42.45;102320.59;5141559;28;20044;-80
2022/03/24 00:14:02;;;;;;;3.95;3.58;;;;;;;10.94;42.96;102318.88;5166867;28;20057;-80
2022/03/24 00:16:33;;;;;;;16.55;3.45;;;;;;;10.93;42.95;102318.88;5193770;28;20052;-80
2022/03/24 00:19:03;;;;;;;24.65;4.07;;;;;;;10.82;43.50;102313.66;5161224;28;20029;-80
2022/03/24 00:21:34;;;;;;;3.92;3.25;;;;;;;10.86;43.32;102315.41;5160850;28;20050;-80
2022/03/24 00:24:05;;;;;;;2.97;2.63;;;;;;;10.82;42.97;102313.66;5149251;28;20056;-81
2022/03/24 00:26:35;;;;;;;6.30;4.40;;;;;;;10.86;43.50;102311.00;5180015;28;20045;-80
2022/03/24 00:29:09;;;;;;;2.30;1.58;;;;;;;10.81;43.13;102306.66;5174238;28;20053;-80
2022/03/24 00:31:40;;;;;;;2.70;2.50;;;;;;;10.79;43.59;102305.75;5179945;28;20549;-80
2022/03/24 00:34:11;;;;;;;7.30;2.65;;;;;;;10.78;43.52;102296.16;5142957;28;20561;-80
2022/03/24 00:36:41;;;;;;;1.90;1.83;;;;;;;10.73;43.51;102301.44;5193163;28;20045;-80
2022/03/24 00:39:12;;;;;;;2.78;2.40;;;;;;;10.73;43.96;102293.56;5167105;28;20079;-81
2022/03/24 00:41:43;;;;;;;1.95;1.85;;;;;;;10.68;43.65;102301.44;5168714;28;20041;-80
2022/03/24 00:44:14;;;;;;;1.70;1.58;;;;;;;10.66;44.01;102299.69;5181928;28;20225;-81
2022/03/24 00:46:44;;;;;;;7.55;3.40;;;;;;;10.60;43.54;102304.94;5163581;28;20061;-80
2022/03/24 00:49:15;;;;;;;1.45;1.38;;;;;;;10.52;44.05;102290.09;5180857;28;20103;-80
2022/03/24 00:51:46;;;;;;;13.73;4.63;;;;;;;10.51;43.73;102298.81;5179203;28;20124;-81
2022/03/24 00:54:18;;;;;;;3.28;2.97;;;;;;;10.50;44.32;102294.44;5174758;28;20484;-80
2022/03/24 00:56:48;;;;;;;2.70;2.50;;;;;;;10.45;44.57;102303.22;5179226;28;20103;-80
2022/03/24 00:59:22;;;;;;;2.72;2.53;;;;;;;10.45;44.15;102296.22;5173741;28;20029;-81
2022/03/24 01:01:54;;;;;;;33.55;3.38;;;;;;;10.36;43.94;102299.72;5194948;28;20046;-80
2022/03/24 01:04:25;;;;;;;7.30;4.13;;;;;;;10.37;43.97;102304.09;5178052;28;20057;-80
2022/03/24 01:06:59;;;;;;;3.95;2.92;;;;;;;10.35;44.59;102297.06;5145552;28;20121;-80
2022/03/24 01:09:30;;;;;;;5.20;2.90;;;;;;;10.31;44.26;102290.09;5143994;28;20030;-81
2022/03/24 01:12:02;;;;;;;4.13;3.25;;;;;;;10.31;44.28;102295.34;5166532;28;20579;-80
2022/03/24 01:14:35;;;;;;;9.70;4.18;;;;;;;10.24;44.14;102294.47;5172956;28;20141;-80
2022/03/24 01:17:07;;;;;;;2.97;2.78;;;;;;;10.24;44.20;102292.72;5171881;28;20809;-80
2022/03/24 01:19:38;;;;;;;5.50;3.58;;;;;;;10.26;44.94;102290.09;5182795;28;20041;-80
2022/03/24 01:22:08;;;;;;;3.22;2.92;;;;;;;10.23;44.34;102287.47;5162957;28;20112;-80
2022/03/24 01:24:39;;;;;;;17.17;4.50;;;;;;;10.19;44.39;102285.72;5175347;28;20044;-80
2022/03/24 01:27:10;;;;;;;4.00;2.55;;;;;;;10.16;44.44;102285.72;5147439;28;20034;-80
2022/03/24 01:29:41;;;;;;;3.58;3.20;;;;;;;10.16;44.88;102290.97;5201842;28;20060;-80
2022/03/24 01:32:12;;;;;;;5.15;3.15;;;;;;;10.13;44.57;102293.56;5157362;28;20043;-80
2022/03/24 01:34:43;;;;;;;4.78;2.65;;;;;;;10.07;44.54;102286.59;5195217;28;20483;-80
2022/03/24 01:37:14;;;;;;;4.63;3.65;;;;;;;10.00;44.52;102285.72;5175497;28;20046;-80
2022/03/24 01:39:45;;;;;;;5.38;4.45;;;;;;;10.00;44.83;102290.97;5144562;28;20041;-79
2022/03/24 01:42:20;;;;;;;4.82;2.33;;;;;;;10.00;45.22;102288.34;5170646;28;20447;-80
2022/03/24 01:44:50;;;;;;;4.10;2.78;;;;;;;10.00;45.02;102279.63;5153946;28;20704;-81
2022/03/24 01:47:22;;;;;;;5.00;4.15;;;;;;;9.93;45.01;102283.97;5150002;28;20069;-80
2022/03/24 01:49:58;;;;;;;47.92;3.72;;;;;;;9.91;45.27;102280.47;5176863;28;20040;-81
2022/03/24 01:52:29;;;;;;;2.70;2.33;;;;;;;9.69;45.50;102282.19;5182763;28;20098;-79
2022/03/24 01:55:00;;;;;;;7.68;3.80;;;;;;;9.75;45.13;102275.22;5195563;28;20029;-79
2022/03/24 01:57:31;;;;;;;20.63;4.95;;;;;;;9.77;44.90;102276.09;5186138;28;20038;-80
2022/03/24 02:00:05;;;;;;;5.57;2.78;;;;;;;9.75;45.48;102284.84;5178384;28;20424;-80
2022/03/24 02:02:37;;;;;;;11.98;3.67;;;;;;;9.66;45.28;102280.44;5165747;28;20737;-80
2022/03/24 02:05:08;;;;;;;2.75;2.58;;;;;;;9.63;45.57;102272.56;5171079;28;20021;-80
2022/03/24 02:07:38;;;;;;;8.38;4.75;;;;;;;9.63;45.36;102275.19;5174814;28;20120;-80
2022/03/24 02:10:11;;;;;;;5.35;2.95;;;;;;;9.59;45.16;102276.06;5152119;28;20568;-80
2022/03/24 02:12:42;;;;;;;9.15;3.30;;;;;;;9.57;45.45;102275.16;5160767;28;20193;-80
2022/03/24 02:15:12;;;;;;;4.50;3.25;;;;;;;9.51;45.39;102276.03;5147142;28;20437;-80
2022/03/24 02:17:43;;;;;;;1.85;1.75;;;;;;;9.54;45.61;102275.19;5179508;28;20045;-80
2022/03/24 02:20:14;;;;;;;2.47;2.28;;;;;;;9.52;45.53;102266.44;5167894;28;20088;-80
2022/03/24 02:22:45;;;;;;;2.55;2.42;;;;;;;9.49;45.87;102272.56;5173301;28;20630;-80
2022/03/24 02:25:16;;;;;;;2.63;2.47;;;;;;;9.39;45.46;102263.78;5186056;28;20471;-80
2022/03/24 02:27:49;;;;;;;2.65;2.45;;;;;;;9.39;45.58;102266.41;5167239;28;20073;-80
2022/03/24 02:30:20;;;;;;;7.63;6.47;;;;;;;9.39;45.86;102266.41;5195915;28;20096;-80
2022/03/24 02:32:52;;;;;;;6.50;4.78;;;;;;;9.40;45.72;102257.66;5163938;28;20038;-80
2022/03/24 02:35:22;;;;;;;8.98;7.03;;;;;;;9.38;45.80;102264.63;5162544;28;20037;-80
2022/03/24 02:37:53;;;;;;;4.07;3.75;;;;;;;9.37;46.13;102260.31;5191178;28;20115;-80
2022/03/24 02:40:23;;;;;;;4.60;1.73;;;;;;;9.33;46.16;102263.75;5178249;28;20067;-80
2022/03/24 02:42:54;;;;;;;12.27;5.68;;;;;;;9.33;46.06;102263.75;5179089;28;20042;-80
2022/03/24 02:45:24;;;;;;;7.63;6.43;;;;;;;9.30;46.06;102261.13;5173098;28;20052;-80
2022/03/24 02:47:55;;;;;;;9.27;4.75;;;;;;;9.09;45.99;102260.19;5154990;28;20140;-80
2022/03/24 02:50:25;;;;;;;5.68;3.22;;;;;;;9.13;46.69;102267.19;5182040;28;20044;-80
2022/03/24 02:52:56;;;;;;;4.15;3.83;;;;;;;9.12;46.34;102273.31;5173880;28;20088;-80
2022/03/24 02:55:26;;;;;;;7.10;5.32;;;;;;;9.14;46.95;102268.94;5181874;28;20048;-80
2022/03/24 02:57:59;;;;;;;2.53;2.20;;;;;;;8.91;46.64;102273.19;5156138;28;20038;-80
2022/03/24 03:00:29;;;;;;;3.50;3.15;;;;;;;9.01;46.54;102274.13;5152166;28;20033;-79
2022/03/24 03:03:02;;;;;;;3.88;3.50;;;;;;;8.88;46.56;102266.22;5160355;28;20115;-80
2022/03/24 03:05:33;;;;;;;16.15;3.63;;;;;;;8.93;46.56;102256.63;5148325;28;20022;-80
2022/03/24 03:08:03;;;;;;;2.75;2.50;;;;;;;8.96;46.62;102261.03;5198204;28;20049;-80
2022/03/24 03:10:34;;;;;;;4.32;3.17;;;;;;;8.94;46.52;102265.38;5160735;28;20105;-80
2022/03/24 03:13:08;;;;;;;11.88;5.80;;;;;;;8.80;46.67;102263.53;5166975;28;20042;-80
2022/03/24 03:15:38;;;;;;;4.57;4.18;;;;;;;8.87;47.25;102263.59;5189631;28;20378;-81
2022/03/24 03:18:11;;;;;;;22.13;8.35;;;;;;;8.84;47.71;102261.84;5168634;28;20135;-80
2022/03/24 03:20:42;;;;;;;2.65;2.15;;;;;;;8.64;46.24;102262.59;5163600;28;20045;-80
2022/03/24 03:23:13;;;;;;;4.10;3.80;;;;;;;8.75;47.04;102262.66;5190899;28;20037;-80
2022/03/24 03:25:43;;;;;;;5.38;4.82;;;;;;;8.70;47.01;102267.00;5194774;28;20029;-82
2022/03/24 03:28:14;;;;;;;3.25;2.88;;;;;;;8.73;47.21;102267.00;5142621;28;20053;-80
2022/03/24 03:30:45;;;;;;;5.35;3.78;;;;;;;8.76;47.38;102268.78;5162467;28;20156;-80
2022/03/24 03:33:16;;;;;;;5.13;4.57;;;;;;;8.66;47.32;102271.34;5146887;28;20037;-78
2022/03/24 03:35:48;;;;;;;10.77;4.38;;;;;;;8.62;47.17;102274.81;5147154;28;20575;-78
2022/03/24 03:38:19;;;;;;;4.50;4.10;;;;;;;8.59;47.28;102271.28;5175452;28;20120;-80
2022/03/24 03:40:52;;;;;;;7.70;5.20;;;;;;;8.57;47.42;102273.00;5146278;28;20037;-79
2022/03/24 03:43:23;;;;;;;33.53;5.88;;;;;;;8.57;47.64;102278.25;5158348;28;20061;-80
2022/03/24 03:45:53;;;;;;;17.98;8.30;;;;;;;8.43;47.55;102271.16;5173364;28;20125;-80
2022/03/24 03:48:25;;;;;;;5.25;3.30;;;;;;;8.47;47.66;102278.19;5167185;28;20034;-79
2022/03/24 03:50:55;;;;;;;5.45;4.15;;;;;;;8.48;48.44;102284.31;5190728;28;20033;-79
2022/03/24 03:53:26;;;;;;;3.80;3.50;;;;;;;8.49;47.99;102284.31;5174667;28;20042;-80
2022/03/24 03:55:56;;;;;;;1.75;1.65;;;;;;;8.42;47.62;102282.50;5167846;28;20056;-79
2022/03/24 03:58:27;;;;;;;2.40;1.95;;;;;;;8.39;47.37;102278.97;5168187;28;20168;-80
2022/03/24 04:00:58;;;;;;;3.67;3.30;;;;;;;8.37;48.01;102284.22;5191024;28;20043;-79
2022/03/24 04:03:31;;;;;;;9.20;4.35;;;;;;;8.32;47.97;102278.03;5183619;28;20052;-79
2022/03/24 04:06:12;;;;;;;2.42;2.25;;;;;;;8.15;47.60;102284.03;5192410;28;20171;-79
2022/03/24 04:08:43;;;;;;;3.47;3.28;;;;;;;8.21;48.29;102284.94;5182024;28;20037;-79
2022/03/24 04:11:17;;;;;;;4.18;3.80;;;;;;;8.24;47.87;102274.50;5145831;28;20056;-80
2022/03/24 04:13:47;;;;;;;4.03;3.65;;;;;;;8.27;48.20;102269.31;5159377;28;20034;-79
2022/03/24 04:16:18;;;;;;;7.03;6.18;;;;;;;8.23;48.06;102278.88;5180276;28;21459;-79
2022/03/24 04:18:49;;;;;;;3.42;2.53;;;;;;;8.25;48.10;102284.09;5152346;28;20045;-79
2022/03/24 04:21:20;;;;;;;11.73;2.83;;;;;;;8.24;48.55;102284.97;5148057;28;20572;-79
2022/03/24 04:23:51;;;;;;;3.72;3.45;;;;;;;8.14;48.26;102284.03;5149213;28;20022;-80
2022/03/24 04:26:22;;;;;;;3.80;3.45;;;;;;;8.09;48.57;102290.97;5158317;28;20068;-79
2022/03/24 04:28:52;;;;;;;4.90;4.03;;;;;;;8.08;48.00;102289.22;5172515;28;20025;-79
2022/03/24 04:31:23;;;;;;;7.35;6.53;;;;;;;8.06;48.58;102286.56;5183926;28;20080;-79
2022/03/24 04:33:53;;;;;;;3.03;2.83;;;;;;;8.06;48.58;102283.94;5174074;28;20607;-79
2022/03/24 04:36:24;;;;;;;6.15;4.50;;;;;;;8.06;48.68;102288.31;5178212;28;20124;-80
2022/03/24 04:38:54;;;;;;;5.50;4.85;;;;;;;7.98;48.61;102293.47;5176456;28;20026;-79
2022/03/24 04:41:25;;;;;;;3.67;3.33;;;;;;;7.83;48.93;102284.63;5163961;28;20045;-79
2022/03/24 04:43:55;;;;;;;3.40;2.83;;;;;;;7.93;49.62;102289.94;5174008;28;20460;-79
2022/03/24 04:46:26;;;;;;;4.22;3.92;;;;;;;7.91;48.68;102286.44;5184322;28;20041;-79
2022/03/24 04:48:56;;;;;;;3.08;2.80;;;;;;;7.93;49.00;102290.84;5164021;28;20096;-80
2022/03/24 04:51:27;;;;;;;4.20;3.90;;;;;;;7.87;48.97;102296.88;5181366;28;20037;-80
2022/03/24 04:53:57;;;;;;;3.35;3.15;;;;;;;7.82;49.37;102298.53;5149415;28;20438;-80
2022/03/24 04:56:28;;;;;;;3.30;3.10;;;;;;;7.80;48.73;102295.06;5158258;28;20054;-79
2022/03/24 04:58:59;;;;;;;3.03;2.78;;;;;;;7.82;49.30;102297.69;5189326;28;20067;-79
2022/03/24 05:01:29;;;;;;;4.32;3.95;;;;;;;7.72;49.11;102296.72;5177090;28;20038;-79
2022/03/24 05:04:00;;;;;;;6.00;2.55;;;;;;;7.81;49.35;102295.94;5187001;28;20041;-79
2022/03/24 05:06:34;;;;;;;3.10;2.75;;;;;;;7.79;49.50;102302.88;5172427;28;20041;-79
2022/03/24 05:09:04;;;;;;;6.93;2.15;;;;;;;7.76;49.75;102303.72;5186446;28;20033;-79
2022/03/24 05:11:35;;;;;;;4.93;3.95;;;;;;;7.72;49.46;102297.59;5162561;28;20668;-79
2022/03/24 05:14:08;;;;;;;16.30;2.60;;;;;;;7.65;49.84;102297.50;5157689;28;20130;-79
2022/03/24 05:16:39;;;;;;;2.08;1.98;;;;;;;7.71;50.42;102294.97;5186491;28;20045;-79
2022/03/24 05:19:09;;;;;;;3.22;3.03;;;;;;;7.63;50.13;102294.00;5176368;28;20561;-80
2022/03/24 05:21:40;;;;;;;4.05;3.65;;;;;;;7.65;50.37;102297.50;5179907;28;20464;-78
2022/03/24 05:24:11;;;;;;;1.73;1.63;;;;;;;7.65;49.70;102305.31;5181362;28;20029;-79
2022/03/24 05:26:43;;;;;;;1.42;1.38;;;;;;;7.63;50.61;102301.84;5183020;28;20050;-79
2022/03/24 05:29:13;;;;;;;3.28;3.03;;;;;;;7.60;49.96;102299.19;5148054;28;20037;-79
2022/03/24 05:31:44;;;;;;;2.85;2.65;;;;;;;7.59;49.94;102290.50;5199386;28;20053;-79
2022/03/24 05:34:14;;;;;;;2.95;2.75;;;;;;;7.63;50.66;102299.25;5174412;28;20026;-79
2022/03/24 05:36:45;;;;;;;3.63;3.33;;;;;;;7.50;49.81;102295.63;5180250;28;20149;-80
2022/03/24 05:39:16;;;;;;;5.65;4.18;;;;;;;7.50;50.01;102298.22;5178771;28;20540;-79
2022/03/24 05:41:49;;;;;;;2.30;2.17;;;;;;;7.52;50.04;102296.50;5165019;28;20046;-80
2022/03/24 05:44:20;;;;;;;1.13;1.10;;;;;;;7.47;51.31;102298.19;5170636;28;20548;-79
2022/03/24 05:46:51;;;;;;;2.38;2.10;;;;;;;7.48;51.00;102294.72;5178280;28;20129;-80
2022/03/24 05:49:22;;;;;;;2.47;2.35;;;;;;;7.27;50.50;102293.63;5176917;28;20690;-79
2022/03/24 05:51:52;;;;;;;3.13;2.85;;;;;;;7.36;51.00;102298.94;5168285;28;20037;-79
2022/03/24 05:54:23;;;;;;;24.60;4.05;;;;;;;7.34;50.39;102291.94;5162459;28;20053;-81
2022/03/24 05:56:53;;;;;;;4.22;3.88;;;;;;;7.34;50.46;102297.16;5191296;28;20045;-80
2022/03/24 05:59:25;;;;;;;6.63;5.25;;;;;;;7.40;50.78;102299.84;5168340;28;20076;-80
2022/03/24 06:01:57;;;;;;;3.92;3.45;;;;;;;7.40;50.87;102299.84;5171203;28;20037;-81
2022/03/24 06:04:29;;;;;;;6.40;4.55;;;;;;;7.34;50.32;102299.78;5168072;28;20141;-81
2022/03/24 06:07:01;;;;;;;5.07;3.80;;;;;;;7.22;50.86;102301.41;5175504;28;20443;-80
2022/03/24 06:09:32;;;;;;;14.00;3.53;;;;;;;7.27;50.58;102303.16;5205221;28;20030;-80
2022/03/24 06:12:03;;;;;;;2.90;2.70;;;;;;;7.22;50.05;102304.00;5183125;28;20569;-80
2022/03/24 06:14:34;;;;;;;4.25;3.85;;;;;;;7.22;50.41;102308.34;5158487;28;20096;-78
2022/03/24 06:17:05;;;;;;;4.47;2.08;;;;;;;7.24;50.92;102306.63;5183664;28;20045;-78
2022/03/24 06:19:36;;;;;;;8.27;2.92;;;;;;;7.25;50.95;102309.25;5185763;28;20034;-79
2022/03/24 06:22:07;;;;;;;2.67;2.58;;;;;;;7.19;50.46;102305.72;5170877;28;20057;-78
2022/03/24 06:24:38;;;;;;;1.70;1.60;;;;;;;7.23;50.61;102308.34;5171382;28;20030;-78
2022/03/24 06:27:09;;;;;;;9.63;3.85;;;;;;;7.13;51.42;102309.13;5157411;28;20037;-78
2022/03/24 06:29:39;;;;;;;6.10;4.82;;;;;;;7.14;50.77;102318.69;5160370;28;20655;-79
2022/03/24 06:32:10;;;;;;;4.75;3.92;;;;;;;7.19;50.80;102306.56;5159434;28;20056;-79
2022/03/24 06:34:45;;;;;;;17.10;4.35;;;;;;;7.24;51.70;102310.09;5205179;28;20029;-79
2022/03/24 06:37:15;;;;;;;4.90;4.15;;;;;;;7.27;51.13;102314.50;5205298;28;20164;-79
2022/03/24 06:39:46;;;;;;;5.00;4.53;;;;;;;7.16;52.97;102309.13;5205301;28;20025;-79
2022/03/24 06:42:17;;;;;;;4.07;2.90;;;;;;;7.18;51.38;102319.63;5186366;28;20057;-80
2022/03/24 06:44:48;;;;;;;4.28;3.88;;;;;;;7.21;51.34;102312.69;5178429;28;20033;-82
2022/03/24 06:47:19;;;;;;;3.97;3.67;;;;;;;7.25;51.33;102311.84;5196961;28;20041;-80
2022/03/24 06:49:50;;;;;;;2.55;2.42;;;;;;;7.11;53.49;102313.44;5171011;28;20029;-79
2022/03/24 06:52:20;;;;;;;11.63;4.20;;;;;;;7.16;51.65;102316.97;5158740;28;20061;-80
2022/03/24 06:54:51;;;;;;;4.78;4.38;;;;;;;7.25;51.19;102316.22;5182190;28;20163;-79
2022/03/24 06:57:22;;;;;;;2.30;2.17;;;;;;;7.29;51.28;102314.53;5183530;28;20149;-79
2022/03/24 06:59:52;;;;;;;3.40;3.10;;;;;;;7.29;50.96;102319.75;5163557;28;20124;-79
2022/03/24 07:02:23;;;;;;;2.63;2.42;;;;;;;7.20;51.62;102316.16;5200835;28;20041;-80
2022/03/24 07:04:54;;;;;;;3.65;3.38;;;;;;;7.28;51.63;102323.22;5155819;28;20021;-81
2022/03/24 07:07:27;;;;;;;1.45;1.40;;;;;;;7.32;51.19;102322.38;5157982;28;20057;-80
2022/03/24 07:09:58;;;;;;;3.10;2.88;;;;;;;7.28;52.50;102324.06;5196927;28;20025;-80
2022/03/24 07:12:28;;;;;;;4.00;2.05;;;;;;;7.27;51.63;102321.44;5166471;28;20049;-80
2022/03/24 07:14:59;;;;;;;9.15;4.40;;;;;;;7.30;51.82;102321.50;5182895;28;20048;-79
2022/03/24 07:17:29;;;;;;;4.35;3.95;;;;;;;7.39;51.48;102327.69;5178335;28;20049;-80
2022/03/24 07:20:03;;;;;;;3.35;3.15;;;;;;;7.38;52.22;102330.31;5163986;28;20077;-80
2022/03/24 07:22:34;;;;;;;;;;;;;;;7.52;53.77;102331.34;5156535;28;20037;-80
2022/03/24 07:25:09;;;;;;;6.35;2.38;;;;;;;7.57;52.88;102329.63;5181088;28;19988;-79
2022/03/24 07:27:42;;;;;;;19.60;3.58;;;;;;;7.61;53.38;102332.31;5170768;28;20042;-81
2022/03/24 07:30:12;;;;;;;4.28;3.78;;;;;;;7.64;53.87;102335.81;5164771;28;20029;-78
2022/03/24 07:32:46;;;;;;;6.60;5.38;;;;;;;7.60;57.82;102336.66;5194750;28;20129;-78
2022/03/24 07:35:18;;;;;;;;;;;;;;;7.79;55.18;102335.13;5185463;28;20061;-78
2022/03/24 07:37:48;;;;;;;2.85;2.67;;;;;;;7.76;59.15;102340.28;5163944;28;20643;-79
2022/03/24 07:40:24;;;;;;;4.00;3.70;;;;;;;7.86;57.06;102344.78;5186394;28;20049;-78
2022/03/24 07:42:57;;;;;;;4.88;2.90;;;;;;;7.94;57.14;102338.75;5205882;28;20140;-80
2022/03/24 07:45:30;;;;;;;3.88;3.58;;;;;;;7.99;57.47;102332.69;5162799;28;20070;-79
2022/03/24 07:48:20;;;;;;;1.88;1.77;;;;;;;8.10;56.15;102340.63;5153371;28;20462;-80
2022/03/24 07:51:00;;;;;;;6.00;3.65;;;;;;;8.13;57.35;102337.16;5199472;28;20506;-79
2022/03/24 07:53:48;;;;;;;4.15;3.85;;;;;;;8.13;57.31;102331.94;5188282;28;20551;-79
2022/03/24 07:56:24;;;;;;;2.85;2.65;;;;;;;8.17;57.77;102336.34;5167697;28;20092;-81
2022/03/24 07:58:58;;;;;;;1.83;1.67;;;;;;;8.26;57.76;102335.53;5147289;28;20028;-80
2022/03/24 08:01:30;;;;;;;9.10;3.28;;;;;;;8.42;55.90;102333.94;5180934;28;20049;-79
2022/03/24 08:04:08;;;;;;;4.43;4.03;;;;;;;8.40;57.86;102349.59;5205008;28;20053;-80
2022/03/24 08:06:48;;;;;;;6.25;4.45;;;;;;;8.54;57.34;102339.28;5183693;28;20284;-79
2022/03/24 08:09:19;;;;;;;3.92;3.63;;;;;;;8.48;58.60;102347.94;5160577;28;20061;-81
2022/03/24 08:11:50;;;;;;;2.35;2.25;;;;;;;8.56;57.86;102342.78;5155300;28;20670;-80
2022/03/24 08:14:20;;;;;;;6.40;3.50;;;;;;;8.61;58.34;102348.91;5184215;28;20029;-80
2022/03/24 08:16:51;;;;;;;4.03;3.65;;;;;;;8.67;57.34;102353.31;5174298;28;20037;-80
2022/03/24 08:19:21;;;;;;;5.10;4.60;;;;;;;8.72;57.37;102351.59;5189412;28;20044;-80
2022/03/24 08:21:52;;;;;;;2.58;2.45;;;;;;;8.75;57.24;102346.41;5171524;28;20175;-80
2022/03/24 08:24:22;;;;;;;8.07;7.28;;;;;;;8.81;57.94;102354.28;5189627;28;20036;-80
2022/03/24 08:26:53;;;;;;;2.53;2.33;;;;;;;8.82;57.25;102348.19;5182184;28;20055;-80
2022/03/24 08:29:23;;;;;;;9.88;7.00;;;;;;;8.92;57.44;102353.50;5199047;28;20044;-80
2022/03/24 08:31:54;;;;;;;11.30;5.40;;;;;;;8.94;58.70;102354.38;5151163;28;20042;-81
2022/03/24 08:34:25;;;;;;;4.60;3.72;;;;;;;9.06;57.79;102354.44;5183405;28;20041;-80
2022/03/24 08:36:55;;;;;;;4.50;4.13;;;;;;;9.17;57.49;102353.63;5166593;28;20060;-79
2022/03/24 08:39:26;;;;;;;3.35;2.00;;;;;;;9.17;57.25;102356.25;5166116;28;20032;-79
2022/03/24 08:41:56;;;;;;;2.83;2.63;;;;;;;9.17;57.33;102354.53;5142056;28;20321;-79
2022/03/24 08:44:27;;;;;;;6.57;3.17;;;;;;;9.28;56.77;102351.94;5181527;28;20171;-80
2022/03/24 08:46:57;;;;;;;3.95;3.58;;;;;;;9.32;56.77;102353.69;5209500;28;20095;-78
2022/03/24 08:49:34;;;;;;;5.07;4.32;;;;;;;9.36;56.91;102354.56;5198916;28;20036;-80
2022/03/24 08:52:09;;;;;;;4.75;4.32;;;;;;;9.43;56.88;102354.63;5187545;28;20116;-80
2022/03/24 08:54:43;;;;;;;4.88;3.45;;;;;;;9.55;56.35;102351.16;5154375;28;20073;-80
2022/03/24 08:57:26;;;;;;;;;;;;;;;;;;;;;
2022/03/24 09:01:03;;;;;;;4.00;3.22;;;;;;;9.66;55.05;102353.81;5191036;28;20027;-82
2022/03/24 09:04:10;;;;;;;4.90;4.28;;;;;;;9.72;55.15;102359.06;5190289;28;20172;-81
2022/03/24 09:06:46;;;;;;;4.65;4.25;;;;;;;9.75;54.99;102353.00;5112901;28;20046;-80
2022/03/24 09:09:57;;;;;;;5.68;4.53;;;;;;;9.81;54.36;102362.59;5158120;28;20050;-82
2022/03/24 09:13:08;;;;;;;4.65;4.28;;;;;;;9.89;54.21;102353.88;5131000;28;20047;-82
2022/03/24 09:16:36;;;;;;;4.85;4.03;;;;;;;9.95;53.08;102355.66;5167541;28;20041;-81
2022/03/24 09:20:10;;;;;;;4.28;3.88;;;;;;;10.11;52.99;102356.53;5158472;28;20096;-81
2022/03/24 09:22:53;;;;;;;4.57;3.45;;;;;;;10.18;53.25;102362.66;5153191;28;20041;-82
2022/03/24 09:25:33;;;;;;;7.30;5.10;;;;;;;10.15;53.13;102358.28;5189664;28;20029;-80
2022/03/24 09:28:22;;;;;;;4.90;4.50;;;;;;;10.24;53.59;102357.41;5171350;28;20049;-81
2022/03/24 09:30:55;;;;;;;3.10;2.83;;;;;;;10.23;53.59;102356.56;5165784;28;20152;-80
2022/03/24 09:33:36;;;;;;;4.35;3.95;;;;;;;10.33;53.78;102357.41;5149405;28;20049;-79
2022/03/24 09:36:11;;;;;;;4.85;4.13;;;;;;;10.36;53.85;102361.78;5179874;28;20042;-80
2022/03/24 09:38:42;;;;;;;3.92;3.63;;;;;;;10.53;53.08;102359.22;5199350;28;20025;-79
2022/03/24 09:41:18;;;;;;;2.17;2.08;;;;;;;10.59;53.17;102356.56;5148754;28;20029;-80
2022/03/24 09:43:51;;;;;;;4.55;4.20;;;;;;;10.60;53.27;102355.69;5184884;28;20060;-80
2022/03/24 09:46:24;;;;;;;2.65;2.47;;;;;;;10.68;53.43;102353.94;5198301;28;20075;-80
2022/03/24 09:48:59;;;;;;;8.63;4.63;;;;;;;10.75;53.48;102348.69;5172089;28;20032;-80
2022/03/24 09:51:30;;;;;;;7.15;3.40;;;;;;;10.85;53.17;102346.03;5189470;28;20033;-80
2022/03/24 09:54:01;;;;;;;9.70;4.40;;;;;;;10.93;52.98;102342.50;5206045;28;20033;-79
2022/03/24 09:56:32;;;;;;;6.30;4.88;;;;;;;11.09;53.03;102348.59;5184995;28;20756;-79
2022/03/24 09:59:11;;;;;;;3.40;3.10;;;;;;;11.07;52.89;102350.34;5178761;28;20652;-82
2022/03/24 10:01:45;;;;;;;7.18;5.65;;;;;;;11.18;51.60;102348.56;5177884;28;20038;-82
2022/03/24 10:04:15;;;;;;;4.68;3.95;;;;;;;11.19;51.26;102345.06;5172194;28;20085;-80
2022/03/24 10:07:03;;;;;;;5.63;5.05;;;;;;;11.47;49.02;102344.94;5199356;28;20061;-78
2022/03/24 10:09:37;;;;;;;4.60;4.20;;;;;;;11.38;48.34;102348.50;5183996;28;20097;-80
2022/03/24 10:12:17;;;;;;;6.18;5.35;;;;;;;11.38;47.11;102352.84;5191649;28;20037;-79
2022/03/24 10:15:05;;;;;;;5.65;5.00;;;;;;;11.67;46.42;102342.19;5157631;28;20061;-79
2022/03/24 10:17:38;;;;;;;8.23;4.95;;;;;;;11.94;43.61;102340.28;5166604;28;20049;-79
2022/03/24 10:20:15;;;;;;;6.37;5.83;;;;;;;11.96;43.25;102343.78;5170649;28;20061;-80
2022/03/24 10:23:18;;;;;;;7.20;4.40;;;;;;;11.93;43.53;102344.69;5182738;28;20475;-81
2022/03/24 10:25:51;;;;;;;8.48;6.57;;;;;;;12.21;43.47;102333.97;5165510;28;20041;-80
2022/03/24 10:28:24;;;;;;;24.52;4.53;;;;;;;12.26;44.25;102336.56;5182889;28;20041;-80
2022/03/24 10:30:58;;;;;;;;;;;;;;;12.08;45.25;102337.59;5166503;28;20641;-80
2022/03/24 10:33:47;;;;;;;3.28;3.08;;;;;;;12.07;44.94;102341.09;5176033;28;19917;-79
2022/03/24 10:36:26;;;;;;;6.35;3.35;;;;;;;12.36;42.35;102332.97;5149354;28;20028;-80
2022/03/24 10:39:04;;;;;;;5.90;4.13;;;;;;;12.60;40.77;102334.50;5186009;28;20131;-79
2022/03/24 10:41:38;;;;;;;6.30;4.72;;;;;;;12.74;41.49;102334.34;5142197;28;20152;-80
2022/03/24 10:44:12;;;;;;;4.22;3.92;;;;;;;12.64;41.36;102334.47;5189659;28;20029;-79
2022/03/24 10:46:42;;;;;;;;;;;;;;;12.67;41.48;102331.81;5205807;28;20033;-80
2022/03/24 10:49:25;;;;;;;4.60;4.20;;;;;;;12.57;43.30;102324.00;5177608;28;19920;-80
2022/03/24 10:51:56;;;;;;;6.45;3.60;;;;;;;12.58;43.17;102325.75;5207608;28;20057;-80
2022/03/24 10:54:38;;;;;;;5.22;3.85;;;;;;;12.75;40.87;102328.19;5202255;28;20060;-79
2022/03/24 10:57:13;;;;;;;4.80;4.35;;;;;;;12.85;40.88;102322.84;5150006;28;20045;-81
2022/03/24 10:59:58;;;;;;;11.18;3.65;;;;;;;12.89;38.96;102322.78;5205222;28;20465;-80
2022/03/24 11:02:29;;;;;;;4.65;3.80;;;;;;;13.01;39.52;102320.91;5191659;28;20046;-81
2022/03/24 11:05:12;;;;;;;2.80;2.60;;;;;;;13.00;36.78;102324.44;5183546;28;20034;-81
2022/03/24 11:07:53;;;;;;;2.90;2.63;;;;;;;13.22;36.71;102322.44;5160073;28;20104;-81
2022/03/24 11:10:33;;;;;;;1.50;1.40;;;;;;;13.36;35.54;102323.13;5149673;28;20026;-80
2022/03/24 11:13:19;;;;;;;4.38;4.00;;;;;;;13.61;34.56;102322.81;5168841;28;20598;-82
2022/03/24 11:15:54;;;;;;;3.15;2.70;;;;;;;13.37;36.14;102313.44;5195466;28;20412;-81
2022/03/24 11:18:25;;;;;;;4.40;3.83;;;;;;;13.53;35.42;102314.13;5149200;28;20088;-78
2022/03/24 11:21:03;;;;;;;4.00;3.65;;;;;;;13.58;36.55;102311.44;5151328;28;20116;-77
2022/03/24 11:23:39;;;;;;;6.30;3.90;;;;;;;13.60;35.49;102313.16;5182775;28;20045;-80
2022/03/24 11:26:14;;;;;;;3.67;2.40;;;;;;;13.53;36.41;102304.44;5183599;28;20036;-81
2022/03/24 11:28:55;;;;;;;5.35;3.45;;;;;;;13.73;36.27;102310.31;5119894;28;20037;-82
2022/03/24 11:31:30;;;;;;;2.95;2.65;;;;;;;13.78;36.10;102314.63;5178289;28;20062;-78
2022/03/24 11:34:06;;;;;;;2.83;2.63;;;;;;;13.65;37.63;102303.41;5165353;28;20017;-78
2022/03/24 11:36:41;;;;;;;0.95;0.95;;;;;;;13.92;34.43;102303.03;5165768;28;20064;-80
2022/03/24 11:39:13;;;;;;;1.52;1.42;;;;;;;14.15;32.04;102298.22;5179301;28;20121;-79
2022/03/24 11:41:52;;;;;;;1.67;1.58;;;;;;;14.17;32.56;102293.78;5178325;28;20038;-79
2022/03/24 11:44:32;;;;;;;1.20;1.17;;;;;;;14.42;32.43;102289.84;5202985;28;20566;-78
2022/03/24 11:47:15;;;;;;;5.05;2.05;;;;;;;14.45;31.65;102290.66;5182063;28;20057;-79
2022/03/24 11:50:09;;;;;;;5.20;4.13;;;;;;;14.74;30.80;102281.34;5192452;28;20312;-80
2022/03/24 11:52:40;;;;;;;4.20;2.88;;;;;;;14.77;31.45;102283.06;5166285;28;20061;-79
2022/03/24 11:55:15;;;;;;;5.97;3.08;;;;;;;15.09;29.32;102282.38;5161097;28;20064;-79
2022/03/24 11:57:59;;;;;;;3.40;3.05;;;;;;;14.82;31.46;102275.91;5189495;28;20101;-80
2022/03/24 12:00:30;;;;;;;5.50;3.65;;;;;;;15.10;29.51;102278.84;5214012;28;20034;-79
2022/03/24 12:03:01;;;;;;;2.25;2.03;;;;;;;15.14;30.80;102273.50;5153575;28;20037;-78